sensor_id;sensor_type;location;lat;lon;timestamp;pressure;altitude;pressure_sealevel;temperature;humidity
36454;BME280;22478;51.740;-1.314;2022-07-23T00:00:57;100605.75;;;16.00;100.00
36454;BME280;22478;51.740;-1.314;2022-07-23T00:03:25;100609.31;;;15.43;100.00
36454;BME280;22478;51.740;-1.314;2022-07-23T00:05:52;100606.45;;;16.25;100.00
36454;BME280;22478;51.740;-1.314;2022-07-23T00:08:20;100606.26;;;15.14;100.00
36454;BME280;22478;51.740;-1.314;2022-07-23T00:10:47;100604.35;;;15.65;100.00
36454;BME280;22478;51.740;-1.314;2022-07-23T00:13:14;100609.98;;;12.52;100.00
36454;BME280;22478;51.740;-1.314;2022-07-23T00:15:41;100599.67;;;14.95;100.00
36454;BME280;22478;51.740;-1.314;2022-07-23T00:18:09;100600.70;;;14.55;100.00
36454;BME280;22478;51.740;-1.314;2022-07-23T00:20:36;100594.61;;;15.40;100.00
36454;BME280;22478;51.740;-1.314;2022-07-23T00:23:03;100597.86;;;15.95;100.00
36454;BME280;22478;51.740;-1.314;2022-07-23T00:25:30;100598.97;;;15.57;100.00
36454;BME280;22478;51.740;-1.314;2022-07-23T00:27:57;100609.50;;;13.74;100.00
36454;BME280;22478;51.740;-1.314;2022-07-23T00:30:25;100605.17;;;14.24;100.00
36454;BME280;22478;51.740;-1.314;2022-07-23T00:32:54;100605.05;;;13.77;100.00
36454;BME280;22478;51.740;-1.314;2022-07-23T00:35:23;100606.76;;;15.39;100.00
36454;BME280;22478;51.740;-1.314;2022-07-23T00:37:51;100611.57;;;14.76;100.00
36454;BME280;22478;51.740;-1.314;2022-07-23T00:40:18;100606.91;;;14.94;100.00
36454;BME280;22478;51.740;-1.314;2022-07-23T00:42:45;100603.63;;;14.83;100.00
36454;BME280;22478;51.740;-1.314;2022-07-23T00:45:13;100600.20;;;14.81;100.00
36454;BME280;22478;51.740;-1.314;2022-07-23T00:47:41;100606.66;;;12.70;100.00
36454;BME280;22478;51.740;-1.314;2022-07-23T00:50:09;100606.25;;;12.43;100.00
36454;BME280;22478;51.740;-1.314;2022-07-23T00:52:38;100611.89;;;11.50;100.00
36454;BME280;22478;51.740;-1.314;2022-07-23T00:55:07;100608.17;;;12.57;100.00
36454;BME280;22478;51.740;-1.314;2022-07-23T00:57:37;100611.80;;;11.24;100.00
36454;BME280;22478;51.740;-1.314;2022-07-23T01:00:07;100603.86;;;12.89;100.00
36454;BME280;22478;51.740;-1.314;2022-07-23T01:02:35;100607.41;;;11.50;100.00
36454;BME280;22478;51.740;-1.314;2022-07-23T01:05:02;100599.26;;;14.19;100.00
36454;BME280;22478;51.740;-1.314;2022-07-23T01:07:30;100599.42;;;12.66;100.00
36454;BME280;22478;51.740;-1.314;2022-07-23T01:09:57;100592.24;;;14.46;100.00
36454;BME280;22478;51.740;-1.314;2022-07-23T01:12:24;100593.50;;;14.72;100.00
36454;BME280;22478;51.740;-1.314;2022-07-23T01:14:55;100590.31;;;15.14;100.00
36454;BME280;22478;51.740;-1.314;2022-07-23T01:17:23;100587.24;;;15.51;100.00
36454;BME280;22478;51.740;-1.314;2022-07-23T01:19:51;100592.57;;;13.57;100.00
36454;BME280;22478;51.740;-1.314;2022-07-23T01:22:19;100591.52;;;13.30;100.00
36454;BME280;22478;51.740;-1.314;2022-07-23T01:24:47;100588.89;;;14.07;100.00
36454;BME280;22478;51.740;-1.314;2022-07-23T01:27:14;100581.47;;;15.22;100.00
36454;BME280;22478;51.740;-1.314;2022-07-23T01:29:41;100580.43;;;15.22;100.00
36454;BME280;22478;51.740;-1.314;2022-07-23T01:32:08;100579.33;;;15.36;100.00
36454;BME280;22478;51.740;-1.314;2022-07-23T01:34:35;100581.39;;;15.66;100.00
36454;BME280;22478;51.740;-1.314;2022-07-23T01:37:02;100583.13;;;14.94;100.00
36454;BME280;22478;51.740;-1.314;2022-07-23T01:39:30;100588.19;;;13.25;100.00
36454;BME280;22478;51.740;-1.314;2022-07-23T01:41:57;100588.83;;;13.24;100.00
36454;BME280;22478;51.740;-1.314;2022-07-23T01:44:24;100588.51;;;14.73;100.00
36454;BME280;22478;51.740;-1.314;2022-07-23T01:46:51;100590.30;;;14.19;100.00
36454;BME280;22478;51.740;-1.314;2022-07-23T01:49:18;100586.75;;;12.96;100.00
36454;BME280;22478;51.740;-1.314;2022-07-23T01:51:45;100586.69;;;11.31;100.00
36454;BME280;22478;51.740;-1.314;2022-07-23T01:54:12;100583.05;;;12.23;100.00
36454;BME280;22478;51.740;-1.314;2022-07-23T01:56:39;100582.03;;;12.68;100.00
36454;BME280;22478;51.740;-1.314;2022-07-23T01:59:06;100579.74;;;13.13;100.00
36454;BME280;22478;51.740;-1.314;2022-07-23T02:01:33;100577.83;;;14.38;100.00
36454;BME280;22478;51.740;-1.314;2022-07-23T02:04:00;100574.89;;;14.15;100.00
36454;BME280;22478;51.740;-1.314;2022-07-23T02:06:27;100574.53;;;13.78;100.00
36454;BME280;22478;51.740;-1.314;2022-07-23T02:08:54;100577.98;;;12.20;100.00
36454;BME280;22478;51.740;-1.314;2022-07-23T02:11:21;100581.50;;;12.03;100.00
36454;BME280;22478;51.740;-1.314;2022-07-23T02:13:48;100580.04;;;13.58;100.00
36454;BME280;22478;51.740;-1.314;2022-07-23T02:16:15;100585.83;;;13.16;100.00
36454;BME280;22478;51.740;-1.314;2022-07-23T02:18:42;100584.70;;;13.37;100.00
36454;BME280;22478;51.740;-1.314;2022-07-23T02:21:09;100590.83;;;11.67;100.00
36454;BME280;22478;51.740;-1.314;2022-07-23T02:23:36;100591.04;;;13.58;100.00
36454;BME280;22478;51.740;-1.314;2022-07-23T02:26:03;100592.93;;;12.82;100.00
36454;BME280;22478;51.740;-1.314;2022-07-23T02:28:30;100593.08;;;13.04;100.00
36454;BME280;22478;51.740;-1.314;2022-07-23T02:30:57;100593.88;;;13.30;100.00
36454;BME280;22478;51.740;-1.314;2022-07-23T02:33:24;100595.45;;;13.56;100.00
36454;BME280;22478;51.740;-1.314;2022-07-23T02:35:52;100590.48;;;13.32;100.00
36454;BME280;22478;51.740;-1.314;2022-07-23T02:38:20;100594.77;;;12.06;100.00
36454;BME280;22478;51.740;-1.314;2022-07-23T02:40:47;100593.33;;;12.28;100.00
36454;BME280;22478;51.740;-1.314;2022-07-23T02:43:14;100591.91;;;12.64;100.00
36454;BME280;22478;51.740;-1.314;2022-07-23T02:45:41;100594.85;;;11.75;100.00
36454;BME280;22478;51.740;-1.314;2022-07-23T02:48:08;100597.89;;;12.23;100.00
36454;BME280;22478;51.740;-1.314;2022-07-23T02:50:36;100592.78;;;13.38;100.00
36454;BME280;22478;51.740;-1.314;2022-07-23T02:53:04;100590.83;;;12.99;100.00
36454;BME280;22478;51.740;-1.314;2022-07-23T02:55:31;100594.89;;;12.05;100.00
36454;BME280;22478;51.740;-1.314;2022-07-23T02:57:58;100591.59;;;12.89;100.00
36454;BME280;22478;51.740;-1.314;2022-07-23T03:00:25;100596.92;;;12.09;100.00
36454;BME280;22478;51.740;-1.314;2022-07-23T03:02:53;100594.43;;;12.62;100.00
36454;BME280;22478;51.740;-1.314;2022-07-23T03:05:20;100595.04;;;13.01;100.00
36454;BME280;22478;51.740;-1.314;2022-07-23T03:07:47;100598.71;;;10.12;100.00
36454;BME280;22478;51.740;-1.314;2022-07-23T03:10:14;100600.12;;;12.47;100.00
36454;BME280;22478;51.740;-1.314;2022-07-23T03:12:41;100604.25;;;11.22;100.00
36454;BME280;22478;51.740;-1.314;2022-07-23T03:15:09;100602.09;;;10.84;100.00
36454;BME280;22478;51.740;-1.314;2022-07-23T03:17:36;100598.43;;;12.36;100.00
36454;BME280;22478;51.740;-1.314;2022-07-23T03:20:04;100595.47;;;13.82;100.00
36454;BME280;22478;51.740;-1.314;2022-07-23T03:22:32;100601.21;;;11.37;100.00
36454;BME280;22478;51.740;-1.314;2022-07-23T03:24:59;100614.81;;;9.81;100.00
36454;BME280;22478;51.740;-1.314;2022-07-23T03:27:28;100606.97;;;11.74;100.00
36454;BME280;22478;51.740;-1.314;2022-07-23T03:29:57;100604.45;;;12.42;100.00
36454;BME280;22478;51.740;-1.314;2022-07-23T03:32:25;100606.28;;;11.31;100.00
36454;BME280;22478;51.740;-1.314;2022-07-23T03:34:53;100608.60;;;11.55;100.00
36454;BME280;22478;51.740;-1.314;2022-07-23T03:37:21;100610.43;;;12.15;100.00
36454;BME280;22478;51.740;-1.314;2022-07-23T03:39:49;100612.28;;;11.33;100.00
36454;BME280;22478;51.740;-1.314;2022-07-23T03:42:16;100607.18;;;12.79;100.00
36454;BME280;22478;51.740;-1.314;2022-07-23T03:44:44;100610.09;;;11.47;100.00
36454;BME280;22478;51.740;-1.314;2022-07-23T03:47:11;100607.13;;;10.66;100.00
36454;BME280;22478;51.740;-1.314;2022-07-23T03:49:38;100611.72;;;9.92;100.00
36454;BME280;22478;51.740;-1.314;2022-07-23T03:52:06;100605.13;;;11.71;100.00
36454;BME280;22478;51.740;-1.314;2022-07-23T03:54:33;100602.24;;;12.30;100.00
36454;BME280;22478;51.740;-1.314;2022-07-23T03:57:00;100599.08;;;11.77;100.00
36454;BME280;22478;51.740;-1.314;2022-07-23T03:59:27;100598.45;;;12.06;100.00
36454;BME280;22478;51.740;-1.314;2022-07-23T04:01:54;100591.12;;;12.88;100.00
36454;BME280;22478;51.740;-1.314;2022-07-23T04:04:21;100592.10;;;11.02;100.00
36454;BME280;22478;51.740;-1.314;2022-07-23T04:06:48;100590.61;;;12.15;100.00
36454;BME280;22478;51.740;-1.314;2022-07-23T04:09:15;100589.82;;;14.43;100.00
36454;BME280;22478;51.740;-1.314;2022-07-23T04:11:42;100602.11;;;11.06;100.00
36454;BME280;22478;51.740;-1.314;2022-07-23T04:14:09;100609.30;;;9.45;100.00
36454;BME280;22478;51.740;-1.314;2022-07-23T04:16:36;100606.34;;;11.18;100.00
36454;BME280;22478;51.740;-1.314;2022-07-23T04:19:03;100605.25;;;11.62;100.00
36454;BME280;22478;51.740;-1.314;2022-07-23T04:21:30;100605.47;;;11.30;100.00
36454;BME280;22478;51.740;-1.314;2022-07-23T04:23:58;100605.55;;;11.73;100.00
36454;BME280;22478;51.740;-1.314;2022-07-23T04:26:26;100603.17;;;11.45;100.00
36454;BME280;22478;51.740;-1.314;2022-07-23T04:28:53;100599.84;;;13.63;100.00
36454;BME280;22478;51.740;-1.314;2022-07-23T04:31:20;100605.32;;;11.65;100.00
36454;BME280;22478;51.740;-1.314;2022-07-23T04:33:48;100592.89;;;14.21;100.00
36454;BME280;22478;51.740;-1.314;2022-07-23T04:36:15;100593.12;;;14.67;100.00
36454;BME280;22478;51.740;-1.314;2022-07-23T04:38:42;100601.59;;;12.47;100.00
36454;BME280;22478;51.740;-1.314;2022-07-23T04:41:09;100609.04;;;12.58;100.00
36454;BME280;22478;51.740;-1.314;2022-07-23T04:43:36;100613.51;;;11.83;100.00
36454;BME280;22478;51.740;-1.314;2022-07-23T04:46:05;100605.87;;;11.73;100.00
36454;BME280;22478;51.740;-1.314;2022-07-23T04:48:32;100593.84;;;13.33;100.00
36454;BME280;22478;51.740;-1.314;2022-07-23T04:51:00;100595.24;;;13.19;100.00
36454;BME280;22478;51.740;-1.314;2022-07-23T04:53:27;100594.83;;;13.49;100.00
36454;BME280;22478;51.740;-1.314;2022-07-23T04:55:54;100597.16;;;11.96;100.00
36454;BME280;22478;51.740;-1.314;2022-07-23T04:58:21;100593.46;;;13.47;100.00
36454;BME280;22478;51.740;-1.314;2022-07-23T05:00:48;100591.53;;;13.89;100.00
36454;BME280;22478;51.740;-1.314;2022-07-23T05:03:15;100600.85;;;11.72;100.00
36454;BME280;22478;51.740;-1.314;2022-07-23T05:05:42;100597.64;;;12.69;100.00
36454;BME280;22478;51.740;-1.314;2022-07-23T05:08:10;100601.02;;;11.32;100.00
36454;BME280;22478;51.740;-1.314;2022-07-23T05:10:37;100598.02;;;14.02;100.00
36454;BME280;22478;51.740;-1.314;2022-07-23T05:13:04;100599.44;;;13.73;100.00
36454;BME280;22478;51.740;-1.314;2022-07-23T05:15:31;100605.72;;;13.14;100.00
36454;BME280;22478;51.740;-1.314;2022-07-23T05:17:59;100606.74;;;13.70;100.00
36454;BME280;22478;51.740;-1.314;2022-07-23T05:20:26;100606.56;;;14.67;100.00
36454;BME280;22478;51.740;-1.314;2022-07-23T05:22:54;100603.76;;;14.08;100.00
36454;BME280;22478;51.740;-1.314;2022-07-23T05:25:22;100607.74;;;13.54;100.00
36454;BME280;22478;51.740;-1.314;2022-07-23T05:27:49;100610.81;;;12.87;100.00
36454;BME280;22478;51.740;-1.314;2022-07-23T05:30:16;100613.18;;;14.71;100.00
36454;BME280;22478;51.740;-1.314;2022-07-23T05:32:43;100614.98;;;13.21;100.00
36454;BME280;22478;51.740;-1.314;2022-07-23T05:35:12;100612.20;;;12.13;100.00
36454;BME280;22478;51.740;-1.314;2022-07-23T05:37:39;100607.55;;;13.35;100.00
36454;BME280;22478;51.740;-1.314;2022-07-23T05:40:09;100614.04;;;13.40;100.00
36454;BME280;22478;51.740;-1.314;2022-07-23T05:42:38;100623.07;;;10.57;100.00
36454;BME280;22478;51.740;-1.314;2022-07-23T05:45:07;100616.07;;;11.79;100.00
36454;BME280;22478;51.740;-1.314;2022-07-23T05:47:41;100620.71;;;11.53;100.00
36454;BME280;22478;51.740;-1.314;2022-07-23T05:50:10;100628.53;;;11.24;100.00
36454;BME280;22478;51.740;-1.314;2022-07-23T05:52:38;100629.41;;;10.47;100.00
36454;BME280;22478;51.740;-1.314;2022-07-23T05:55:06;100633.78;;;9.49;100.00
36454;BME280;22478;51.740;-1.314;2022-07-23T05:57:34;100637.85;;;9.64;100.00
36454;BME280;22478;51.740;-1.314;2022-07-23T06:00:03;100639.37;;;10.42;100.00
36454;BME280;22478;51.740;-1.314;2022-07-23T06:02:30;100643.58;;;9.50;100.00
36454;BME280;22478;51.740;-1.314;2022-07-23T06:04:57;100647.31;;;8.91;100.00
36454;BME280;22478;51.740;-1.314;2022-07-23T06:07:24;100642.97;;;9.33;100.00
36454;BME280;22478;51.740;-1.314;2022-07-23T06:09:51;100644.44;;;9.27;100.00
36454;BME280;22478;51.740;-1.314;2022-07-23T06:12:18;100641.44;;;9.44;100.00
36454;BME280;22478;51.740;-1.314;2022-07-23T06:14:46;100634.60;;;10.71;100.00
36454;BME280;22478;51.740;-1.314;2022-07-23T06:17:13;100642.68;;;10.10;100.00
36454;BME280;22478;51.740;-1.314;2022-07-23T06:19:40;100638.86;;;10.97;100.00
36454;BME280;22478;51.740;-1.314;2022-07-23T06:22:07;100638.85;;;10.45;100.00
36454;BME280;22478;51.740;-1.314;2022-07-23T06:24:34;100625.73;;;11.10;100.00
36454;BME280;22478;51.740;-1.314;2022-07-23T06:27:01;100625.13;;;10.85;100.00
36454;BME280;22478;51.740;-1.314;2022-07-23T06:29:29;100633.07;;;10.07;100.00
36454;BME280;22478;51.740;-1.314;2022-07-23T06:31:57;100631.94;;;10.24;100.00
36454;BME280;22478;51.740;-1.314;2022-07-23T06:34:24;100632.02;;;10.40;100.00
36454;BME280;22478;51.740;-1.314;2022-07-23T06:36:52;100632.52;;;10.24;100.00
36454;BME280;22478;51.740;-1.314;2022-07-23T06:39:19;100623.53;;;10.86;100.00
36454;BME280;22478;51.740;-1.314;2022-07-23T06:41:46;100626.35;;;11.18;100.00
36454;BME280;22478;51.740;-1.314;2022-07-23T06:44:13;100630.69;;;11.27;100.00
36454;BME280;22478;51.740;-1.314;2022-07-23T06:46:40;100625.40;;;13.53;100.00
36454;BME280;22478;51.740;-1.314;2022-07-23T06:49:08;100633.88;;;13.25;100.00
36454;BME280;22478;51.740;-1.314;2022-07-23T06:51:36;100636.81;;;10.79;100.00
36454;BME280;22478;51.740;-1.314;2022-07-23T06:54:04;100637.81;;;11.60;100.00
36454;BME280;22478;51.740;-1.314;2022-07-23T06:56:32;100637.72;;;11.35;100.00
36454;BME280;22478;51.740;-1.314;2022-07-23T06:58:58;100635.93;;;11.82;100.00
36454;BME280;22478;51.740;-1.314;2022-07-23T07:01:25;100629.91;;;11.84;100.00
36454;BME280;22478;51.740;-1.314;2022-07-23T07:03:52;100630.79;;;11.58;100.00
36454;BME280;22478;51.740;-1.314;2022-07-23T07:06:20;100628.60;;;13.88;100.00
36454;BME280;22478;51.740;-1.314;2022-07-23T07:08:47;100627.48;;;13.70;100.00
36454;BME280;22478;51.740;-1.314;2022-07-23T07:11:14;100634.24;;;13.32;100.00
36454;BME280;22478;51.740;-1.314;2022-07-23T07:13:41;100636.95;;;13.62;100.00
36454;BME280;22478;51.740;-1.314;2022-07-23T07:16:08;100635.98;;;12.80;100.00
36454;BME280;22478;51.740;-1.314;2022-07-23T07:18:35;100627.90;;;13.23;100.00
36454;BME280;22478;51.740;-1.314;2022-07-23T07:21:02;100623.91;;;11.13;100.00
36454;BME280;22478;51.740;-1.314;2022-07-23T07:23:30;100612.74;;;14.11;100.00
36454;BME280;22478;51.740;-1.314;2022-07-23T07:25:56;100619.65;;;11.14;100.00
36454;BME280;22478;51.740;-1.314;2022-07-23T07:28:23;100618.31;;;12.52;100.00
36454;BME280;22478;51.740;-1.314;2022-07-23T07:30:50;100623.14;;;11.39;100.00
36454;BME280;22478;51.740;-1.314;2022-07-23T07:33:17;100622.04;;;14.52;100.00
36454;BME280;22478;51.740;-1.314;2022-07-23T07:35:44;100625.69;;;11.90;100.00
36454;BME280;22478;51.740;-1.314;2022-07-23T07:38:12;100619.53;;;15.66;100.00
36454;BME280;22478;51.740;-1.314;2022-07-23T07:40:40;100626.78;;;15.15;100.00
36454;BME280;22478;51.740;-1.314;2022-07-23T07:43:07;100632.84;;;14.34;100.00
36454;BME280;22478;51.740;-1.314;2022-07-23T07:45:35;100637.21;;;14.73;100.00
36454;BME280;22478;51.740;-1.314;2022-07-23T07:48:02;100633.19;;;13.19;100.00
36454;BME280;22478;51.740;-1.314;2022-07-23T07:50:29;100635.54;;;12.31;100.00
36454;BME280;22478;51.740;-1.314;2022-07-23T07:52:56;100635.57;;;12.97;100.00
36454;BME280;22478;51.740;-1.314;2022-07-23T07:55:24;100636.51;;;14.30;100.00
36454;BME280;22478;51.740;-1.314;2022-07-23T07:57:52;100633.71;;;13.00;100.00
36454;BME280;22478;51.740;-1.314;2022-07-23T08:00:19;100636.71;;;14.34;100.00
36454;BME280;22478;51.740;-1.314;2022-07-23T08:02:48;100633.99;;;14.23;100.00
36454;BME280;22478;51.740;-1.314;2022-07-23T08:05:19;100633.32;;;13.88;100.00
36454;BME280;22478;51.740;-1.314;2022-07-23T08:07:47;100630.41;;;16.36;100.00
36454;BME280;22478;51.740;-1.314;2022-07-23T08:10:15;100630.07;;;16.67;100.00
36454;BME280;22478;51.740;-1.314;2022-07-23T08:12:44;100632.42;;;14.94;100.00
36454;BME280;22478;51.740;-1.314;2022-07-23T08:15:13;100624.18;;;16.71;93.50
36454;BME280;22478;51.740;-1.314;2022-07-23T08:17:42;100622.87;;;17.23;89.76
36454;BME280;22478;51.740;-1.314;2022-07-23T08:20:11;100629.57;;;14.76;99.22
36454;BME280;22478;51.740;-1.314;2022-07-23T08:22:45;100616.67;;;18.19;86.05
36454;BME280;22478;51.740;-1.314;2022-07-23T08:25:13;100608.65;;;17.85;83.02
36454;BME280;22478;51.740;-1.314;2022-07-23T08:27:40;100618.17;;;18.28;83.32
36454;BME280;22478;51.740;-1.314;2022-07-23T08:30:09;100621.93;;;16.22;85.57
36454;BME280;22478;51.740;-1.314;2022-07-23T08:32:54;100612.83;;;17.85;86.93
36454;BME280;22478;51.740;-1.314;2022-07-23T08:35:25;100619.69;;;18.59;80.45
36454;BME280;22478;51.740;-1.314;2022-07-23T08:37:52;100611.19;;;22.73;66.29
36454;BME280;22478;51.740;-1.314;2022-07-23T08:40:21;100615.13;;;21.00;66.65
36454;BME280;22478;51.740;-1.314;2022-07-23T08:42:50;100614.15;;;17.69;84.37
36454;BME280;22478;51.740;-1.314;2022-07-23T08:45:19;100606.24;;;19.98;73.25
36454;BME280;22478;51.740;-1.314;2022-07-23T08:47:49;100608.87;;;22.27;66.92
36454;BME280;22478;51.740;-1.314;2022-07-23T08:50:17;100623.38;;;17.95;72.89
36454;BME280;22478;51.740;-1.314;2022-07-23T08:52:45;100621.52;;;19.48;65.92
36454;BME280;22478;51.740;-1.314;2022-07-23T08:55:12;100618.67;;;19.93;65.19
36454;BME280;22478;51.740;-1.314;2022-07-23T08:57:40;100622.78;;;19.17;63.39
36454;BME280;22478;51.740;-1.314;2022-07-23T09:00:09;100620.03;;;19.30;61.55
36454;BME280;22478;51.740;-1.314;2022-07-23T09:02:41;100625.39;;;18.89;66.89
36454;BME280;22478;51.740;-1.314;2022-07-23T09:05:09;100626.25;;;19.23;62.54
36454;BME280;22478;51.740;-1.314;2022-07-23T09:07:38;100622.49;;;22.53;55.15
36454;BME280;22478;51.740;-1.314;2022-07-23T09:10:29;100616.99;;;22.50;49.34
36454;BME280;22478;51.740;-1.314;2022-07-23T09:12:57;100623.30;;;19.55;57.05
36454;BME280;22478;51.740;-1.314;2022-07-23T09:15:24;100619.79;;;22.52;53.33
36454;BME280;22478;51.740;-1.314;2022-07-23T09:17:52;100609.26;;;22.67;49.87
36454;BME280;22478;51.740;-1.314;2022-07-23T09:20:20;100610.51;;;19.53;55.36
36454;BME280;22478;51.740;-1.314;2022-07-23T09:22:47;100608.92;;;21.04;53.84
36454;BME280;22478;51.740;-1.314;2022-07-23T09:25:16;100610.67;;;20.64;55.25
36454;BME280;22478;51.740;-1.314;2022-07-23T09:27:48;100618.74;;;19.28;59.16
36454;BME280;22478;51.740;-1.314;2022-07-23T09:30:17;100618.40;;;20.54;55.47
36454;BME280;22478;51.740;-1.314;2022-07-23T09:32:44;100618.47;;;22.35;50.63
36454;BME280;22478;51.740;-1.314;2022-07-23T09:35:44;100619.94;;;20.70;52.33
36454;BME280;22478;51.740;-1.314;2022-07-23T09:38:12;100616.43;;;20.02;55.11
36454;BME280;22478;51.740;-1.314;2022-07-23T09:40:39;100623.88;;;18.12;57.75
36454;BME280;22478;51.740;-1.314;2022-07-23T09:43:07;100623.40;;;17.63;63.04
36454;BME280;22478;51.740;-1.314;2022-07-23T09:45:35;100618.75;;;19.85;57.79
36454;BME280;22478;51.740;-1.314;2022-07-23T09:48:11;100619.40;;;18.96;61.83
36454;BME280;22478;51.740;-1.314;2022-07-23T09:50:39;100608.18;;;21.73;52.10
36454;BME280;22478;51.740;-1.314;2022-07-23T09:53:07;100608.11;;;20.51;50.93
36454;BME280;22478;51.740;-1.314;2022-07-23T09:55:36;100599.99;;;23.50;47.51
36454;BME280;22478;51.740;-1.314;2022-07-23T09:58:04;100589.00;;;26.39;42.52
36454;BME280;22478;51.740;-1.314;2022-07-23T10:00:32;100590.21;;;26.08;41.78
36454;BME280;22478;51.740;-1.314;2022-07-23T10:03:01;100589.46;;;23.99;42.04
36454;BME280;22478;51.740;-1.314;2022-07-23T10:05:29;100586.62;;;27.35;37.26
36454;BME280;22478;51.740;-1.314;2022-07-23T10:07:58;100597.92;;;22.30;43.89
36454;BME280;22478;51.740;-1.314;2022-07-23T10:10:27;100590.00;;;23.51;43.20
36454;BME280;22478;51.740;-1.314;2022-07-23T10:12:55;100581.74;;;26.23;39.72
36454;BME280;22478;51.740;-1.314;2022-07-23T10:15:24;100578.22;;;24.25;42.30
36454;BME280;22478;51.740;-1.314;2022-07-23T10:17:52;100578.51;;;26.50;39.68
36454;BME280;22478;51.740;-1.314;2022-07-23T10:20:19;100579.63;;;28.31;37.70
36454;BME280;22478;51.740;-1.314;2022-07-23T10:22:51;100586.32;;;27.01;38.15
36454;BME280;22478;51.740;-1.314;2022-07-23T10:25:29;100592.54;;;23.57;42.04
36454;BME280;22478;51.740;-1.314;2022-07-23T10:28:10;100583.94;;;26.35;42.05
36454;BME280;22478;51.740;-1.314;2022-07-23T10:30:47;100582.92;;;27.52;38.23
36454;BME280;22478;51.740;-1.314;2022-07-23T10:33:27;100587.72;;;24.33;41.44
36454;BME280;22478;51.740;-1.314;2022-07-23T10:36:02;100584.85;;;27.22;39.89
36454;BME280;22478;51.740;-1.314;2022-07-23T10:38:34;100580.03;;;26.37;41.41
36454;BME280;22478;51.740;-1.314;2022-07-23T10:41:05;100576.73;;;25.14;42.08
36454;BME280;22478;51.740;-1.314;2022-07-23T10:43:33;100575.61;;;26.08;41.77
36454;BME280;22478;51.740;-1.314;2022-07-23T10:46:22;100570.57;;;25.10;42.18
36454;BME280;22478;51.740;-1.314;2022-07-23T10:49:20;100575.34;;;25.51;44.05
36454;BME280;22478;51.740;-1.314;2022-07-23T10:52:17;100568.70;;;24.99;44.51
36454;BME280;22478;51.740;-1.314;2022-07-23T10:54:46;100568.41;;;26.85;41.64
36454;BME280;22478;51.740;-1.314;2022-07-23T10:57:14;100560.43;;;26.51;40.14
36454;BME280;22478;51.740;-1.314;2022-07-23T11:00:46;100563.36;;;25.87;42.43
36454;BME280;22478;51.740;-1.314;2022-07-23T11:03:32;100552.76;;;30.07;35.18
36454;BME280;22478;51.740;-1.314;2022-07-23T11:06:00;100555.09;;;28.82;36.01
36454;BME280;22478;51.740;-1.314;2022-07-23T11:08:28;100548.49;;;29.41;35.18
36454;BME280;22478;51.740;-1.314;2022-07-23T11:11:08;100544.09;;;30.47;35.35
36454;BME280;22478;51.740;-1.314;2022-07-23T11:13:45;100548.87;;;25.01;43.79
36454;BME280;22478;51.740;-1.314;2022-07-23T11:16:20;100549.60;;;26.73;40.72
36454;BME280;22478;51.740;-1.314;2022-07-23T11:19:02;100555.06;;;26.52;41.32
36454;BME280;22478;51.740;-1.314;2022-07-23T11:21:46;100549.89;;;24.68;45.43
36454;BME280;22478;51.740;-1.314;2022-07-23T11:24:17;100540.46;;;27.90;39.86
36454;BME280;22478;51.740;-1.314;2022-07-23T11:26:48;100548.70;;;24.90;42.35
36454;BME280;22478;51.740;-1.314;2022-07-23T11:29:48;100550.84;;;26.89;42.00
36454;BME280;22478;51.740;-1.314;2022-07-23T11:32:32;100549.11;;;28.15;39.51
36454;BME280;22478;51.740;-1.314;2022-07-23T11:34:59;100549.69;;;26.04;41.68
36454;BME280;22478;51.740;-1.314;2022-07-23T11:37:31;100551.81;;;25.81;42.05
36454;BME280;22478;51.740;-1.314;2022-07-23T11:40:00;100552.45;;;23.79;46.34
36454;BME280;22478;51.740;-1.314;2022-07-23T11:42:27;100556.73;;;23.24;50.44
36454;BME280;22478;51.740;-1.314;2022-07-23T11:44:55;100557.26;;;23.79;49.47
36454;BME280;22478;51.740;-1.314;2022-07-23T11:47:24;100557.49;;;23.77;49.91
36454;BME280;22478;51.740;-1.314;2022-07-23T11:49:53;100551.71;;;23.59;51.21
36454;BME280;22478;51.740;-1.314;2022-07-23T11:52:22;100562.15;;;21.19;57.80
36454;BME280;22478;51.740;-1.314;2022-07-23T11:54:52;100560.03;;;20.30;65.23
36454;BME280;22478;51.740;-1.314;2022-07-23T11:57:24;100549.18;;;21.74;62.24
36454;BME280;22478;51.740;-1.314;2022-07-23T11:59:55;100550.84;;;22.25;60.95
36454;BME280;22478;51.740;-1.314;2022-07-23T12:02:23;100546.58;;;19.90;68.60
36454;BME280;22478;51.740;-1.314;2022-07-23T12:04:52;100554.03;;;23.07;61.62
36454;BME280;22478;51.740;-1.314;2022-07-23T12:07:29;100543.89;;;24.39;52.92
36454;BME280;22478;51.740;-1.314;2022-07-23T12:09:58;100546.15;;;24.05;53.37
36454;BME280;22478;51.740;-1.314;2022-07-23T12:12:26;100541.56;;;21.89;56.47
36454;BME280;22478;51.740;-1.314;2022-07-23T12:14:55;100547.37;;;20.10;63.98
36454;BME280;22478;51.740;-1.314;2022-07-23T12:17:29;100545.98;;;21.30;62.45
36454;BME280;22478;51.740;-1.314;2022-07-23T12:19:57;100546.75;;;21.11;64.45
36454;BME280;22478;51.740;-1.314;2022-07-23T12:22:33;100550.25;;;19.53;71.31
36454;BME280;22478;51.740;-1.314;2022-07-23T12:25:03;100552.50;;;20.65;69.21
36454;BME280;22478;51.740;-1.314;2022-07-23T12:27:30;100552.56;;;21.08;65.82
36454;BME280;22478;51.740;-1.314;2022-07-23T12:29:58;100550.92;;;20.86;64.68
36454;BME280;22478;51.740;-1.314;2022-07-23T12:32:28;100552.73;;;23.18;60.41
36454;BME280;22478;51.740;-1.314;2022-07-23T12:35:06;100549.61;;;21.36;62.61
36454;BME280;22478;51.740;-1.314;2022-07-23T12:37:36;100547.01;;;23.01;57.53
36454;BME280;22478;51.740;-1.314;2022-07-23T12:40:22;100536.76;;;24.24;55.61
36454;BME280;22478;51.740;-1.314;2022-07-23T12:42:51;100533.71;;;24.94;54.22